Bristol, Bristol Airport (EGGD)

NameBristol Airport
CityBristol
CountryUnited Kingdom
ICAOEGGD
IATABRS
Altitude622 feet
CoordinatesGoogle Map
Live Air TrafficLiveATC.net
METAREGGD 230620Z AUTO 28013KT 9999 OVC009 14/14 Q1016
2024-07-23 06:20:00 Wind: West (280°) 6.69 m/s - Visibility: > 10000 m - Temperature: 14 °C - Dew point: 14 °C - Humidity: 100% - Pressure: 1016 hPa

Sorry, no flights used the airport in this database.